sensor_id;sensor_type;location;lat;lon;timestamp;pressure;altitude;pressure_sealevel;temperature;humidity
38054;BME280;23859;50.672;7.164;2023-05-09T00:01:42;59428.38;;;13.04;100.00
38054;BME280;23859;50.672;7.164;2023-05-09T00:04:10;59432.66;;;13.03;100.00
38054;BME280;23859;50.672;7.164;2023-05-09T00:06:36;59425.25;;;13.03;100.00
38054;BME280;23859;50.672;7.164;2023-05-09T00:09:02;59431.69;;;13.02;100.00
38054;BME280;23859;50.672;7.164;2023-05-09T00:11:30;59429.06;;;13.02;100.00
38054;BME280;23859;50.672;7.164;2023-05-09T00:13:56;59423.94;;;12.99;100.00
38054;BME280;23859;50.672;7.164;2023-05-09T00:16:22;59425.44;;;13.01;100.00
38054;BME280;23859;50.672;7.164;2023-05-09T00:18:49;59416.38;;;12.94;100.00
38054;BME280;23859;50.672;7.164;2023-05-09T00:21:15;59417.22;;;12.90;100.00
38054;BME280;23859;50.672;7.164;2023-05-09T00:23:41;59348.38;;;12.18;100.00
38054;BME280;23859;50.672;7.164;2023-05-09T00:26:09;59404.34;;;12.85;100.00
38054;BME280;23859;50.672;7.164;2023-05-09T00:28:35;59416.56;;;12.92;100.00
38054;BME280;23859;50.672;7.164;2023-05-09T00:31:03;59418.38;;;12.88;100.00
38054;BME280;23859;50.672;7.164;2023-05-09T00:33:30;59415.56;;;12.91;100.00
38054;BME280;23859;50.672;7.164;2023-05-09T00:35:56;59426.41;;;13.02;100.00
38054;BME280;23859;50.672;7.164;2023-05-09T00:38:22;59417.03;;;12.92;100.00
38054;BME280;23859;50.672;7.164;2023-05-09T00:40:49;59414.25;;;12.87;100.00
38054;BME280;23859;50.672;7.164;2023-05-09T00:43:15;59419.19;;;12.92;100.00
38054;BME280;23859;50.672;7.164;2023-05-09T00:45:42;59416.38;;;12.94;100.00
38054;BME280;23859;50.672;7.164;2023-05-09T00:48:08;59405.38;;;12.78;100.00
38054;BME280;23859;50.672;7.164;2023-05-09T00:50:35;59398.16;;;12.68;100.00
38054;BME280;23859;50.672;7.164;2023-05-09T00:53:03;59384.31;;;12.62;100.00
38054;BME280;23859;50.672;7.164;2023-05-09T00:55:29;59380.91;;;12.51;100.00
38054;BME280;23859;50.672;7.164;2023-05-09T00:57:56;59384.34;;;12.54;100.00
38054;BME280;23859;50.672;7.164;2023-05-09T01:00:22;59378.09;;;12.53;100.00
38054;BME280;23859;50.672;7.164;2023-05-09T01:02:52;59372.66;;;12.48;100.00
38054;BME280;23859;50.672;7.164;2023-05-09T01:05:19;59368.53;;;12.46;100.00
38054;BME280;23859;50.672;7.164;2023-05-09T01:08:16;59377.44;;;12.47;100.00
38054;BME280;23859;50.672;7.164;2023-05-09T01:10:55;59369.19;;;12.44;100.00
38054;BME280;23859;50.672;7.164;2023-05-09T01:13:37;59368.22;;;12.43;100.00
38054;BME280;23859;50.672;7.164;2023-05-09T01:16:11;59368.84;;;12.49;100.00
38054;BME280;23859;50.672;7.164;2023-05-09T01:18:46;59382.69;;;12.55;100.00
38054;BME280;23859;50.672;7.164;2023-05-09T01:21:20;59382.50;;;12.58;100.00
38054;BME280;23859;50.672;7.164;2023-05-09T01:24:39;59391.88;;;12.67;100.00
38054;BME280;23859;50.672;7.164;2023-05-09T01:30:02;59409.97;;;12.80;100.00
38054;BME280;23859;50.672;7.164;2023-05-09T01:32:29;59404.69;;;12.80;100.00
38054;BME280;23859;50.672;7.164;2023-05-09T01:35:00;59401.38;;;12.82;100.00
38054;BME280;23859;50.672;7.164;2023-05-09T01:37:30;59407.81;;;12.80;100.00
38054;BME280;23859;50.672;7.164;2023-05-09T01:40:07;59402.88;;;12.83;100.00
38054;BME280;23859;50.672;7.164;2023-05-09T01:42:47;59351.81;;;12.21;100.00
38054;BME280;23859;50.672;7.164;2023-05-09T01:45:13;59413.09;;;12.88;100.00
38054;BME280;23859;50.672;7.164;2023-05-09T01:47:41;59411.59;;;12.95;100.00
38054;BME280;23859;50.672;7.164;2023-05-09T01:50:10;59418.88;;;12.89;100.00
38054;BME280;23859;50.672;7.164;2023-05-09T01:52:37;59411.28;;;12.84;100.00
38054;BME280;23859;50.672;7.164;2023-05-09T01:55:06;59411.28;;;12.84;100.00
38054;BME280;23859;50.672;7.164;2023-05-09T01:57:34;59409.97;;;12.80;100.00
38054;BME280;23859;50.672;7.164;2023-05-09T02:00:01;59401.72;;;12.77;100.00
38054;BME280;23859;50.672;7.164;2023-05-09T02:02:28;59393.69;;;12.71;100.00
38054;BME280;23859;50.672;7.164;2023-05-09T02:04:55;59400.44;;;12.73;100.00
38054;BME280;23859;50.672;7.164;2023-05-09T02:07:23;59405.38;;;12.78;100.00
38054;BME280;23859;50.672;7.164;2023-05-09T02:09:49;59398.28;;;12.73;100.00
38054;BME280;23859;50.672;7.164;2023-05-09T02:12:18;59397.97;;;12.70;100.00
38054;BME280;23859;50.672;7.164;2023-05-09T02:14:44;59394.84;;;12.70;100.00
38054;BME280;23859;50.672;7.164;2023-05-09T02:17:11;59402.09;;;12.72;100.00
38054;BME280;23859;50.672;7.164;2023-05-09T02:19:42;59402.72;;;12.78;100.00
38054;BME280;23859;50.672;7.164;2023-05-09T02:22:09;59350.00;;;12.25;100.00
38054;BME280;23859;50.672;7.164;2023-05-09T02:24:35;59407.81;;;12.80;100.00
38054;BME280;23859;50.672;7.164;2023-05-09T02:27:03;59409.31;;;12.82;100.00
38054;BME280;23859;50.672;7.164;2023-05-09T02:29:36;59410.94;;;12.89;100.00
38054;BME280;23859;50.672;7.164;2023-05-09T02:32:54;59410.63;;;12.86;100.00
38054;BME280;23859;50.672;7.164;2023-05-09T02:35:01;59412.94;;;12.83;100.00
38054;BME280;23859;50.672;7.164;2023-05-09T02:37:29;59406.34;;;12.79;100.00
38054;BME280;23859;50.672;7.164;2023-05-09T02:39:56;59398.78;;;12.74;100.00
38054;BME280;23859;50.672;7.164;2023-05-09T02:42:25;59404.38;;;12.77;100.00
38054;BME280;23859;50.672;7.164;2023-05-09T02:44:54;59409.00;;;12.79;100.00
38054;BME280;23859;50.672;7.164;2023-05-09T02:47:21;59403.22;;;12.78;100.00
38054;BME280;23859;50.672;7.164;2023-05-09T02:49:47;59396.81;;;12.72;100.00
38054;BME280;23859;50.672;7.164;2023-05-09T02:52:13;59334.72;;;12.09;100.00
38054;BME280;23859;50.672;7.164;2023-05-09T02:54:40;59398.78;;;12.74;100.00
38054;BME280;23859;50.672;7.164;2023-05-09T02:57:06;59399.28;;;12.74;100.00
38054;BME280;23859;50.672;7.164;2023-05-09T02:59:32;59402.53;;;12.80;100.00
38054;BME280;23859;50.672;7.164;2023-05-09T03:01:58;59410.13;;;12.85;100.00
38054;BME280;23859;50.672;7.164;2023-05-09T03:04:24;59404.19;;;12.79;100.00
38054;BME280;23859;50.672;7.164;2023-05-09T03:06:59;59405.69;;;12.81;100.00
38054;BME280;23859;50.672;7.164;2023-05-09T03:09:25;59407.00;;;12.77;100.00
38054;BME280;23859;50.672;7.164;2023-05-09T03:11:51;59403.72;;;12.79;100.00
38054;BME280;23859;50.672;7.164;2023-05-09T03:14:17;59408.47;;;12.86;100.00
38054;BME280;23859;50.672;7.164;2023-05-09T03:16:43;59411.59;;;12.87;100.00
38054;BME280;23859;50.672;7.164;2023-05-09T03:19:09;59416.88;;;12.87;100.00
38054;BME280;23859;50.672;7.164;2023-05-09T03:21:35;59413.59;;;12.89;100.00
38054;BME280;23859;50.672;7.164;2023-05-09T03:24:01;59413.41;;;12.91;100.00
38054;BME280;23859;50.672;7.164;2023-05-09T03:26:29;59413.59;;;12.89;100.00
38054;BME280;23859;50.672;7.164;2023-05-09T03:28:55;59411.44;;;12.89;100.00
38054;BME280;23859;50.672;7.164;2023-05-09T03:31:21;59409.28;;;12.90;100.00
38054;BME280;23859;50.672;7.164;2023-05-09T03:33:47;59413.59;;;12.89;100.00
38054;BME280;23859;50.672;7.164;2023-05-09T03:36:13;59416.88;;;12.95;100.00
38054;BME280;23859;50.672;7.164;2023-05-09T03:38:39;59415.75;;;12.88;100.00
38054;BME280;23859;50.672;7.164;2023-05-09T03:41:05;59414.06;;;12.89;100.00
38054;BME280;23859;50.672;7.164;2023-05-09T03:43:31;59418.88;;;12.89;100.00
38054;BME280;23859;50.672;7.164;2023-05-09T03:45:57;59411.59;;;12.87;100.00
38054;BME280;23859;50.672;7.164;2023-05-09T03:48:24;59404.53;;;12.82;100.00
38054;BME280;23859;50.672;7.164;2023-05-09T03:50:50;59407.66;;;12.83;100.00
38054;BME280;23859;50.672;7.164;2023-05-09T03:53:16;59416.56;;;12.92;100.00
38054;BME280;23859;50.672;7.164;2023-05-09T03:55:42;59416.88;;;12.87;100.00
38054;BME280;23859;50.672;7.164;2023-05-09T03:58:08;59412.28;;;12.85;100.00
38054;BME280;23859;50.672;7.164;2023-05-09T04:00:34;59412.59;;;12.88;100.00
38054;BME280;23859;50.672;7.164;2023-05-09T04:03:00;59413.25;;;12.86;100.00
38054;BME280;23859;50.672;7.164;2023-05-09T04:05:26;59422.31;;;12.92;100.00
38054;BME280;23859;50.672;7.164;2023-05-09T04:07:55;59415.56;;;12.91;100.00
38054;BME280;23859;50.672;7.164;2023-05-09T04:10:21;59412.94;;;12.91;100.00
38054;BME280;23859;50.672;7.164;2023-05-09T04:12:47;59420.16;;;12.93;100.00
38054;BME280;23859;50.672;7.164;2023-05-09T04:15:13;59409.13;;;12.92;100.00
38054;BME280;23859;50.672;7.164;2023-05-09T04:17:39;59419.50;;;12.95;100.00
38054;BME280;23859;50.672;7.164;2023-05-09T04:20:06;59410.63;;;12.86;100.00
38054;BME280;23859;50.672;7.164;2023-05-09T04:22:33;59410.13;;;12.85;100.00
38054;BME280;23859;50.672;7.164;2023-05-09T04:24:59;59411.13;;;12.86;100.00
38054;BME280;23859;50.672;7.164;2023-05-09T04:27:25;59406.47;;;12.84;100.00
38054;BME280;23859;50.672;7.164;2023-05-09T04:29:52;59415.06;;;12.90;100.00
38054;BME280;23859;50.672;7.164;2023-05-09T04:32:18;59420.00;;;12.95;100.00
38054;BME280;23859;50.672;7.164;2023-05-09T04:34:48;59417.88;;;12.88;100.00
38054;BME280;23859;50.672;7.164;2023-05-09T04:37:14;59421.84;;;12.92;100.00
38054;BME280;23859;50.672;7.164;2023-05-09T04:39:40;59415.56;;;12.83;100.00
38054;BME280;23859;50.672;7.164;2023-05-09T04:42:06;59419.19;;;12.92;100.00
38054;BME280;23859;50.672;7.164;2023-05-09T04:44:32;59419.50;;;12.95;100.00
38054;BME280;23859;50.672;7.164;2023-05-09T04:47:00;59412.41;;;12.90;100.00
38054;BME280;23859;50.672;7.164;2023-05-09T04:49:26;59412.59;;;12.88;100.00
38054;BME280;23859;50.672;7.164;2023-05-09T04:51:52;59411.13;;;12.86;100.00
38054;BME280;23859;50.672;7.164;2023-05-09T04:54:18;59402.06;;;12.80;100.00
38054;BME280;23859;50.672;7.164;2023-05-09T04:56:50;59403.72;;;12.79;100.00
38054;BME280;23859;50.672;7.164;2023-05-09T04:59:16;59420.53;;;12.88;100.00
38054;BME280;23859;50.672;7.164;2023-05-09T05:01:43;59412.06;;;12.95;100.00
38054;BME280;23859;50.672;7.164;2023-05-09T05:04:09;59409.28;;;12.90;100.00
38054;BME280;23859;50.672;7.164;2023-05-09T05:06:35;59409.31;;;12.82;100.00
38054;BME280;23859;50.672;7.164;2023-05-09T05:09:01;59407.47;;;12.85;100.00
38054;BME280;23859;50.672;7.164;2023-05-09T05:11:27;59419.16;;;13.00;100.00
38054;BME280;23859;50.672;7.164;2023-05-09T05:13:53;59418.50;;;12.94;100.00
38054;BME280;23859;50.672;7.164;2023-05-09T05:16:19;59424.44;;;13.00;100.00
38054;BME280;23859;50.672;7.164;2023-05-09T05:18:45;59432.34;;;13.08;100.00
38054;BME280;23859;50.672;7.164;2023-05-09T05:21:11;59438.75;;;13.14;100.00
38054;BME280;23859;50.672;7.164;2023-05-09T05:23:37;59441.34;;;13.22;100.00
38054;BME280;23859;50.672;7.164;2023-05-09T05:26:03;59445.16;;;13.21;100.00
38054;BME280;23859;50.672;7.164;2023-05-09T05:28:30;59453.72;;;13.27;100.00
38054;BME280;23859;50.672;7.164;2023-05-09T05:30:56;59453.72;;;13.27;100.00
38054;BME280;23859;50.672;7.164;2023-05-09T05:33:24;59462.75;;;13.33;100.00
38054;BME280;23859;50.672;7.164;2023-05-09T05:35:50;59457.63;;;13.38;100.00
38054;BME280;23859;50.672;7.164;2023-05-09T05:38:16;59467.50;;;13.40;100.00
38054;BME280;23859;50.672;7.164;2023-05-09T05:40:42;59475.72;;;13.51;100.00
38054;BME280;23859;50.672;7.164;2023-05-09T05:43:08;59478.19;;;13.54;100.00
38054;BME280;23859;50.672;7.164;2023-05-09T05:45:34;59488.56;;;13.64;100.00
38054;BME280;23859;50.672;7.164;2023-05-09T05:48:00;59498.41;;;13.74;100.00
38054;BME280;23859;50.672;7.164;2023-05-09T05:50:27;59495.13;;;13.68;100.00
38054;BME280;23859;50.672;7.164;2023-05-09T05:52:53;59492.81;;;13.71;100.00
38054;BME280;23859;50.672;7.164;2023-05-09T05:55:19;59498.41;;;13.74;100.00
38054;BME280;23859;50.672;7.164;2023-05-09T05:57:45;59523.59;;;13.99;100.00
38054;BME280;23859;50.672;7.164;2023-05-09T06:00:13;59530.34;;;14.01;100.00
38054;BME280;23859;50.672;7.164;2023-05-09T06:02:42;59515.19;;;13.91;100.00
38054;BME280;23859;50.672;7.164;2023-05-09T06:05:12;59524.13;;;13.92;100.00
38054;BME280;23859;50.672;7.164;2023-05-09T06:07:41;59529.66;;;14.11;100.00
38054;BME280;23859;50.672;7.164;2023-05-09T06:10:09;59509.28;;;13.85;100.00
38054;BME280;23859;50.672;7.164;2023-05-09T06:12:35;59535.28;;;14.06;100.00
38054;BME280;23859;50.672;7.164;2023-05-09T06:15:02;59541.22;;;14.20;100.00
38054;BME280;23859;50.672;7.164;2023-05-09T06:17:30;59546.16;;;14.25;100.00
38054;BME280;23859;50.672;7.164;2023-05-09T06:19:56;59559.66;;;14.36;100.00
38054;BME280;23859;50.672;7.164;2023-05-09T06:22:22;59556.84;;;14.38;100.00
38054;BME280;23859;50.672;7.164;2023-05-09T06:24:48;59576.94;;;14.53;100.00
38054;BME280;23859;50.672;7.164;2023-05-09T06:27:14;59584.34;;;14.61;100.00
38054;BME280;23859;50.672;7.164;2023-05-09T06:29:41;59574.47;;;14.51;100.00
38054;BME280;23859;50.672;7.164;2023-05-09T06:32:07;59581.88;;;14.58;100.00
38054;BME280;23859;50.672;7.164;2023-05-09T06:34:33;59577.94;;;14.54;100.00
38054;BME280;23859;50.672;7.164;2023-05-09T06:36:59;59589.44;;;14.71;100.00
38054;BME280;23859;50.672;7.164;2023-05-09T06:39:25;59582.72;;;14.54;100.00
38054;BME280;23859;50.672;7.164;2023-05-09T06:41:51;59576.44;;;14.53;100.00
38054;BME280;23859;50.672;7.164;2023-05-09T06:44:17;59575.94;;;14.52;100.00
38054;BME280;23859;50.672;7.164;2023-05-09T06:46:43;59579.41;;;14.56;100.00
38054;BME280;23859;50.672;7.164;2023-05-09T06:49:09;59579.22;;;14.58;100.00
38054;BME280;23859;50.672;7.164;2023-05-09T06:51:35;59594.22;;;14.70;100.00
38054;BME280;23859;50.672;7.164;2023-05-09T06:54:02;59584.34;;;14.61;100.00
38054;BME280;23859;50.672;7.164;2023-05-09T06:56:28;59605.25;;;14.79;100.00
38054;BME280;23859;50.672;7.164;2023-05-09T06:58:54;59624.84;;;15.01;100.00
38054;BME280;23859;50.672;7.164;2023-05-09T07:01:23;59616.75;;;14.96;99.68
38054;BME280;23859;50.672;7.164;2023-05-09T07:03:49;59627.31;;;15.04;99.22
38054;BME280;23859;50.672;7.164;2023-05-09T07:06:15;59612.75;;;15.00;99.96
38054;BME280;23859;50.672;7.164;2023-05-09T07:08:41;59648.91;;;15.28;97.94
38054;BME280;23859;50.672;7.164;2023-05-09T07:11:07;59658.09;;;15.40;97.61
38054;BME280;23859;50.672;7.164;2023-05-09T07:13:33;59671.81;;;15.48;95.87
38054;BME280;23859;50.672;7.164;2023-05-09T07:15:59;59693.56;;;15.70;96.11
38054;BME280;23859;50.672;7.164;2023-05-09T07:18:25;59732.44;;;16.12;92.06
38054;BME280;23859;50.672;7.164;2023-05-09T07:20:51;59745.81;;;16.25;90.14
38054;BME280;23859;50.672;7.164;2023-05-09T07:23:17;59793.16;;;16.75;88.67
38054;BME280;23859;50.672;7.164;2023-05-09T07:25:43;59729.91;;;15.96;89.89
38054;BME280;23859;50.672;7.164;2023-05-09T07:28:10;59811.16;;;16.91;87.49
38054;BME280;23859;50.672;7.164;2023-05-09T07:30:37;59800.56;;;16.83;85.66
38054;BME280;23859;50.672;7.164;2023-05-09T07:33:03;59818.41;;;17.01;85.33
38054;BME280;23859;50.672;7.164;2023-05-09T07:35:29;59825.69;;;17.03;85.57
38054;BME280;23859;50.672;7.164;2023-05-09T07:37:55;59796.31;;;16.76;84.89
38054;BME280;23859;50.672;7.164;2023-05-09T07:40:22;59797.59;;;16.80;86.60
38054;BME280;23859;50.672;7.164;2023-05-09T07:42:48;59786.72;;;16.69;86.27
38054;BME280;23859;50.672;7.164;2023-05-09T07:45:15;59777.38;;;16.52;87.63
38054;BME280;23859;50.672;7.164;2023-05-09T07:47:41;59734.56;;;16.19;89.55
38054;BME280;23859;50.672;7.164;2023-05-09T07:50:07;59688.13;;;15.65;90.44
38054;BME280;23859;50.672;7.164;2023-05-09T07:52:33;59778.31;;;16.61;86.99
38054;BME280;23859;50.672;7.164;2023-05-09T07:54:59;59884.78;;;17.67;83.13
38054;BME280;23859;50.672;7.164;2023-05-09T07:57:25;59902.97;;;17.80;79.76
38054;BME280;23859;50.672;7.164;2023-05-09T07:59:52;59931.00;;;18.19;75.62
38054;BME280;23859;50.672;7.164;2023-05-09T08:02:18;59911.41;;;17.89;78.19
38054;BME280;23859;50.672;7.164;2023-05-09T08:04:44;59888.13;;;17.65;79.63
38054;BME280;23859;50.672;7.164;2023-05-09T08:07:19;59906.06;;;17.89;79.54
38054;BME280;23859;50.672;7.164;2023-05-09T08:09:45;59860.63;;;17.48;80.31
38054;BME280;23859;50.672;7.164;2023-05-09T08:12:11;59870.91;;;17.53;81.69
38054;BME280;23859;50.672;7.164;2023-05-09T08:14:37;59823.03;;;17.03;83.00
38054;BME280;23859;50.672;7.164;2023-05-09T08:17:03;59814.13;;;16.94;84.65
38054;BME280;23859;50.672;7.164;2023-05-09T08:19:29;59781.94;;;16.62;85.66
38054;BME280;23859;50.672;7.164;2023-05-09T08:21:55;59774.97;;;16.63;86.13
38054;BME280;23859;50.672;7.164;2023-05-09T08:24:21;59783.63;;;16.61;86.02
38054;BME280;23859;50.672;7.164;2023-05-09T08:26:47;59784.44;;;16.64;86.49
38054;BME280;23859;50.672;7.164;2023-05-09T08:29:13;59823.22;;;17.00;85.43
38054;BME280;23859;50.672;7.164;2023-05-09T08:31:39;59846.50;;;17.24;83.33
38054;BME280;23859;50.672;7.164;2023-05-09T08:34:05;59843.31;;;17.23;83.25
38054;BME280;23859;50.672;7.164;2023-05-09T08:36:31;59843.50;;;17.21;81.41
38054;BME280;23859;50.672;7.164;2023-05-09T08:38:58;59860.38;;;17.37;80.60
38054;BME280;23859;50.672;7.164;2023-05-09T08:41:25;59853.44;;;17.31;79.93
38054;BME280;23859;50.672;7.164;2023-05-09T08:43:55;59896.34;;;17.76;77.90
38054;BME280;23859;50.672;7.164;2023-05-09T08:46:26;59910.72;;;17.91;77.24
38054;BME280;23859;50.672;7.164;2023-05-09T08:48:53;59929.88;;;18.12;75.80
38054;BME280;23859;50.672;7.164;2023-05-09T08:51:20;59908.44;;;17.86;72.47
38054;BME280;23859;50.672;7.164;2023-05-09T08:53:46;59909.84;;;17.95;71.62
38054;BME280;23859;50.672;7.164;2023-05-09T08:56:12;59910.03;;;17.93;73.07
38054;BME280;23859;50.672;7.164;2023-05-09T08:58:39;59899.03;;;17.76;73.54
38054;BME280;23859;50.672;7.164;2023-05-09T09:01:06;59921.31;;;17.99;73.40
38054;BME280;23859;50.672;7.164;2023-05-09T09:03:33;59914.81;;;18.00;71.66
38054;BME280;23859;50.672;7.164;2023-05-09T09:05:59;59921.75;;;18.07;71.28
38054;BME280;23859;50.672;7.164;2023-05-09T09:08:27;59906.94;;;17.84;72.43
38054;BME280;23859;50.672;7.164;2023-05-09T09:10:53;59847.81;;;17.28;70.39
38054;BME280;23859;50.672;7.164;2023-05-09T09:13:20;59910.34;;;17.96;70.47
38054;BME280;23859;50.672;7.164;2023-05-09T09:15:47;59932.84;;;18.15;68.89
38054;BME280;23859;50.672;7.164;2023-05-09T09:18:28;59901.63;;;17.84;68.46
38054;BME280;23859;50.672;7.164;2023-05-09T09:21:08;59919.81;;;17.97;69.01
38054;BME280;23859;50.672;7.164;2023-05-09T09:23:38;59873.06;;;17.53;67.79
38054;BME280;23859;50.672;7.164;2023-05-09T09:26:04;59916.97;;;18.00;68.01
38054;BME280;23859;50.672;7.164;2023-05-09T09:28:31;59928.06;;;18.08;67.80
38054;BME280;23859;50.672;7.164;2023-05-09T09:30:57;59939.72;;;18.30;67.20
38054;BME280;23859;50.672;7.164;2023-05-09T09:33:27;59962.47;;;18.40;64.56
38054;BME280;23859;50.672;7.164;2023-05-09T09:35:54;59980.97;;;18.64;65.72
38054;BME280;23859;50.672;7.164;2023-05-09T09:38:22;59999.50;;;18.79;65.70
38054;BME280;23859;50.672;7.164;2023-05-09T09:40:58;60001.84;;;18.76;64.83
38054;BME280;23859;50.672;7.164;2023-05-09T09:43:31;60020.13;;;19.03;64.19
38054;BME280;23859;50.672;7.164;2023-05-09T09:46:03;59999.31;;;18.82;64.11
38054;BME280;23859;50.672;7.164;2023-05-09T09:48:33;60005.44;;;18.85;63.09
38054;BME280;23859;50.672;7.164;2023-05-09T09:51:18;60027.28;;;19.07;64.23
38054;BME280;23859;50.672;7.164;2023-05-09T09:53:44;60014.19;;;18.97;63.40
38054;BME280;23859;50.672;7.164;2023-05-09T09:56:11;59990.69;;;18.76;64.11
38054;BME280;23859;50.672;7.164;2023-05-09T09:58:38;59994.84;;;18.77;64.48
38054;BME280;23859;50.672;7.164;2023-05-09T10:01:13;59985.72;;;18.71;63.38
38054;BME280;23859;50.672;7.164;2023-05-09T10:03:41;60001.09;;;18.86;64.26
38054;BME280;23859;50.672;7.164;2023-05-09T10:06:12;60033.84;;;19.19;63.62
38054;BME280;23859;50.672;7.164;2023-05-09T10:08:39;60041.78;;;19.27;64.23
38054;BME280;23859;50.672;7.164;2023-05-09T10:11:06;60003.75;;;18.86;66.85
38054;BME280;23859;50.672;7.164;2023-05-09T10:13:34;60023.25;;;19.11;63.00
38054;BME280;23859;50.672;7.164;2023-05-09T10:16:05;60005.94;;;18.86;65.60
38054;BME280;23859;50.672;7.164;2023-05-09T10:18:33;60005.44;;;18.85;66.13
38054;BME280;23859;50.672;7.164;2023-05-09T10:21:00;60015.03;;;18.92;67.49
38054;BME280;23859;50.672;7.164;2023-05-09T10:23:33;60020.63;;;19.03;64.55
38054;BME280;23859;50.672;7.164;2023-05-09T10:26:23;60065.69;;;19.43;66.44
38054;BME280;23859;50.672;7.164;2023-05-09T10:28:54;59999.78;;;18.82;65.71
38054;BME280;23859;50.672;7.164;2023-05-09T10:31:25;59960.13;;;18.43;67.17
38054;BME280;23859;50.672;7.164;2023-05-09T10:33:54;59981.25;;;18.67;67.17
38054;BME280;23859;50.672;7.164;2023-05-09T10:36:21;60010.03;;;18.95;66.50
38054;BME280;23859;50.672;7.164;2023-05-09T10:38:49;60014.66;;;18.97;67.75
38054;BME280;23859;50.672;7.164;2023-05-09T10:41:16;60032.75;;;19.13;65.19
38054;BME280;23859;50.672;7.164;2023-05-09T10:43:44;60039.88;;;19.17;64.19
38054;BME280;23859;50.672;7.164;2023-05-09T10:46:11;60003.44;;;18.83;65.03
38054;BME280;23859;50.672;7.164;2023-05-09T10:48:38;60054.06;;;19.34;63.72
38054;BME280;23859;50.672;7.164;2023-05-09T10:51:05;60080.19;;;19.63;62.88
38054;BME280;23859;50.672;7.164;2023-05-09T10:53:46;60106.19;;;19.86;60.59
38054;BME280;23859;50.672;7.164;2023-05-09T10:56:29;60073.44;;;19.53;60.06
38054;BME280;23859;50.672;7.164;2023-05-09T10:58:57;60040.81;;;19.26;61.08
38054;BME280;23859;50.672;7.164;2023-05-09T11:01:36;60084.47;;;19.70;61.22
38054;BME280;23859;50.672;7.164;2023-05-09T11:04:15;60121.53;;;20.09;59.46
38054;BME280;23859;50.672;7.164;2023-05-09T11:06:50;60119.44;;;20.02;60.79
38054;BME280;23859;50.672;7.164;2023-05-09T11:12:07;60045.28;;;19.31;60.41
38054;BME280;23859;50.672;7.164;2023-05-09T11:17:04;60063.38;;;19.38;64.10
38054;BME280;23859;50.672;7.164;2023-05-09T11:22:15;60038.00;;;19.21;63.20
38054;BME280;23859;50.672;7.164;2023-05-09T11:24:45;60041.09;;;19.29;63.67
38054;BME280;23859;50.672;7.164;2023-05-09T11:27:26;60001.78;;;18.84;65.44
38054;BME280;23859;50.672;7.164;2023-05-09T11:29:54;59990.56;;;18.70;66.66
38054;BME280;23859;50.672;7.164;2023-05-09T11:32:31;60001.47;;;18.81;66.49
38054;BME280;23859;50.672;7.164;2023-05-09T11:35:16;60043.84;;;19.21;65.81
38054;BME280;23859;50.672;7.164;2023-05-09T11:37:50;60063.19;;;19.40;64.73
38054;BME280;23859;50.672;7.164;2023-05-09T11:40:18;60071.56;;;19.57;64.18
38054;BME280;23859;50.672;7.164;2023-05-09T11:42:47;60097.38;;;19.83;63.99
38054;BME280;23859;50.672;7.164;2023-05-09T11:45:15;60159.78;;;20.48;60.85
38054;BME280;23859;50.672;7.164;2023-05-09T11:47:41;60154.31;;;20.42;59.96
38054;BME280;23859;50.672;7.164;2023-05-09T11:50:09;60203.22;;;20.88;58.07
38054;BME280;23859;50.672;7.164;2023-05-09T11:52:36;60191.16;;;20.71;55.14
38054;BME280;23859;50.672;7.164;2023-05-09T11:55:07;60185.09;;;20.73;56.80
38054;BME280;23859;50.672;7.164;2023-05-09T11:57:39;60192.78;;;20.78;55.80
38054;BME280;23859;50.672;7.164;2023-05-09T12:00:06;60240.69;;;21.23;54.23
38054;BME280;23859;50.672;7.164;2023-05-09T12:02:34;60276.31;;;21.61;51.39
38054;BME280;23859;50.672;7.164;2023-05-09T12:05:14;60235.34;;;21.23;50.57
38054;BME280;23859;50.672;7.164;2023-05-09T12:07:41;60193.56;;;20.81;52.09
38054;BME280;23859;50.672;7.164;2023-05-09T12:10:10;60194.47;;;20.77;57.24
38054;BME280;23859;50.672;7.164;2023-05-09T12:12:42;60125.28;;;20.03;62.60
38054;BME280;23859;50.672;7.164;2023-05-09T12:15:09;60072.25;;;19.55;65.12
38054;BME280;23859;50.672;7.164;2023-05-09T12:17:36;60092.78;;;19.73;64.28
38054;BME280;23859;50.672;7.164;2023-05-09T12:20:02;60113.97;;;19.97;64.50
38054;BME280;23859;50.672;7.164;2023-05-09T12:22:30;60124.59;;;20.05;64.08
38054;BME280;23859;50.672;7.164;2023-05-09T12:25:01;60150.72;;;20.33;62.69
38054;BME280;23859;50.672;7.164;2023-05-09T12:27:32;60150.72;;;20.33;61.82
38054;BME280;23859;50.672;7.164;2023-05-09T12:30:05;60115.09;;;20.03;64.11
38054;BME280;23859;50.672;7.164;2023-05-09T12:32:36;60095.59;;;19.78;63.13
38054;BME280;23859;50.672;7.164;2023-05-09T12:35:05;60107.88;;;19.85;64.26
38054;BME280;23859;50.672;7.164;2023-05-09T12:37:31;60089.75;;;19.78;64.30
38054;BME280;23859;50.672;7.164;2023-05-09T12:42:32;60093.59;;;19.76;60.58
38054;BME280;23859;50.672;7.164;2023-05-09T12:45:00;60089.13;;;19.72;63.61
38054;BME280;23859;50.672;7.164;2023-05-09T12:47:27;60120.31;;;19.98;62.41
38054;BME280;23859;50.672;7.164;2023-05-09T12:49:57;60142.28;;;20.25;61.81
38054;BME280;23859;50.672;7.164;2023-05-09T12:52:24;60172.19;;;20.60;61.10
38054;BME280;23859;50.672;7.164;2023-05-09T12:54:52;60214.94;;;21.03;58.68
38054;BME280;23859;50.672;7.164;2023-05-09T12:57:22;60234.22;;;21.17;60.04
38054;BME280;23859;50.672;7.164;2023-05-09T12:59:49;60197.25;;;20.82;61.28
38054;BME280;23859;50.672;7.164;2023-05-09T13:02:15;60194.38;;;20.85;60.54
38054;BME280;23859;50.672;7.164;2023-05-09T13:04:41;60157.78;;;20.46;59.76
38054;BME280;23859;50.672;7.164;2023-05-09T13:07:08;60159.97;;;20.45;56.59
38054;BME280;23859;50.672;7.164;2023-05-09T13:09:53;60169.59;;;20.52;54.97
38054;BME280;23859;50.672;7.164;2023-05-09T13:12:21;60142.38;;;20.30;52.99
38054;BME280;23859;50.672;7.164;2023-05-09T13:14:47;60144.28;;;20.27;53.51